sensor_id;sensor_type;location;lat;lon;timestamp;pressure;altitude;pressure_sealevel;temperature;humidity
60345;BME280;46188;52.324;8.032;2022-10-23T00:01:26;100413.72;;;10.90;100.00
60345;BME280;46188;52.324;8.032;2022-10-23T00:04:03;100418.16;;;10.94;100.00
60345;BME280;46188;52.324;8.032;2022-10-23T00:06:31;100417.38;;;11.07;100.00
60345;BME280;46188;52.324;8.032;2022-10-23T00:08:56;100413.00;;;11.08;100.00
60345;BME280;46188;52.324;8.032;2022-10-23T00:11:25;100417.38;;;11.07;100.00
60345;BME280;46188;52.324;8.032;2022-10-23T00:13:53;100413.88;;;11.12;100.00
60345;BME280;46188;52.324;8.032;2022-10-23T00:16:19;100424.41;;;11.04;100.00
60345;BME280;46188;52.324;8.032;2022-10-23T00:18:45;100424.34;;;10.98;100.00
60345;BME280;46188;52.324;8.032;2022-10-23T00:21:12;100416.44;;;10.99;100.00
60345;BME280;46188;52.324;8.032;2022-10-23T00:23:38;100398.94;;;11.09;100.00
60345;BME280;46188;52.324;8.032;2022-10-23T00:26:05;100406.84;;;11.07;100.00
60345;BME280;46188;52.324;8.032;2022-10-23T00:28:32;100402.50;;;11.14;100.00
60345;BME280;46188;52.324;8.032;2022-10-23T00:31:00;100406.88;;;11.15;100.00
60345;BME280;46188;52.324;8.032;2022-10-23T00:33:26;100405.97;;;11.10;100.00
60345;BME280;46188;52.324;8.032;2022-10-23T00:35:51;100408.56;;;11.05;100.00
60345;BME280;46188;52.324;8.032;2022-10-23T00:38:17;100409.44;;;11.04;100.00
60345;BME280;46188;52.324;8.032;2022-10-23T00:40:42;100415.63;;;11.10;100.00
60345;BME280;46188;52.324;8.032;2022-10-23T00:43:20;100420.91;;;11.10;100.00
60345;BME280;46188;52.324;8.032;2022-10-23T00:45:47;100409.50;;;11.11;100.00
60345;BME280;46188;52.324;8.032;2022-10-23T00:48:12;100405.16;;;11.16;100.00
60345;BME280;46188;52.324;8.032;2022-10-23T00:50:39;100410.41;;;11.16;100.00
60345;BME280;46188;52.324;8.032;2022-10-23T00:53:06;100417.44;;;11.15;100.00
60345;BME280;46188;52.324;8.032;2022-10-23T00:55:33;100414.81;;;11.18;100.00
60345;BME280;46188;52.324;8.032;2022-10-23T00:57:59;100408.69;;;11.21;100.00
60345;BME280;46188;52.324;8.032;2022-10-23T01:03:08;100411.44;;;11.36;100.00
60345;BME280;46188;52.324;8.032;2022-10-23T01:06:10;100410.56;;;11.36;100.00
60345;BME280;46188;52.324;8.032;2022-10-23T01:08:48;100408.78;;;11.35;100.00
60345;BME280;46188;52.324;8.032;2022-10-23T01:11:21;100403.50;;;11.35;100.00
60345;BME280;46188;52.324;8.032;2022-10-23T01:16:40;100407.00;;;11.35;100.00
60345;BME280;46188;52.324;8.032;2022-10-23T01:24:58;100408.78;;;11.35;100.00
60345;BME280;46188;52.324;8.032;2022-10-23T01:27:38;100408.78;;;11.33;100.00
60345;BME280;46188;52.324;8.032;2022-10-23T01:30:08;100411.41;;;11.35;100.00
60345;BME280;46188;52.324;8.032;2022-10-23T01:32:39;100415.81;;;11.34;100.00
60345;BME280;46188;52.324;8.032;2022-10-23T01:35:18;100415.88;;;11.43;100.00
60345;BME280;46188;52.324;8.032;2022-10-23T01:37:50;100415.00;;;11.43;100.00
60345;BME280;46188;52.324;8.032;2022-10-23T01:40:25;100413.25;;;11.45;100.00
60345;BME280;46188;52.324;8.032;2022-10-23T01:42:56;100413.25;;;11.47;100.00
60345;BME280;46188;52.324;8.032;2022-10-23T01:45:29;100422.06;;;11.47;100.00
60345;BME280;46188;52.324;8.032;2022-10-23T01:47:58;100416.75;;;11.42;100.00
60345;BME280;46188;52.324;8.032;2022-10-23T01:50:25;100408.81;;;11.38;100.00
60345;BME280;46188;52.324;8.032;2022-10-23T01:52:51;100399.94;;;11.28;100.00
60345;BME280;46188;52.324;8.032;2022-10-23T01:55:17;100394.63;;;11.23;100.00
60345;BME280;46188;52.324;8.032;2022-10-23T01:57:44;100393.69;;;11.15;100.00
60345;BME280;46188;52.324;8.032;2022-10-23T02:00:13;100391.88;;;11.08;100.00
60345;BME280;46188;52.324;8.032;2022-10-23T02:02:40;100390.06;;;11.01;100.00
60345;BME280;46188;52.324;8.032;2022-10-23T02:05:15;100390.91;;;10.95;100.00
60345;BME280;46188;52.324;8.032;2022-10-23T02:07:42;100382.09;;;10.95;100.00
60345;BME280;46188;52.324;8.032;2022-10-23T02:10:09;100386.53;;;10.96;100.00
60345;BME280;46188;52.324;8.032;2022-10-23T02:20:42;100364.53;;;10.97;100.00
60345;BME280;46188;52.324;8.032;2022-10-23T02:23:29;100360.97;;;10.92;100.00
60345;BME280;46188;52.324;8.032;2022-10-23T02:26:09;100361.84;;;10.92;100.00
60345;BME280;46188;52.324;8.032;2022-10-23T02:28:41;100350.47;;;10.95;100.00
60345;BME280;46188;52.324;8.032;2022-10-23T02:31:10;100358.34;;;10.92;100.00
60345;BME280;46188;52.324;8.032;2022-10-23T02:33:37;100353.09;;;10.95;100.00
60345;BME280;46188;52.324;8.032;2022-10-23T02:36:03;100361.06;;;10.99;100.00
60345;BME280;46188;52.324;8.032;2022-10-23T02:38:32;100354.06;;;11.06;100.00
60345;BME280;46188;52.324;8.032;2022-10-23T02:52:09;100335.47;;;10.90;100.00
60345;BME280;46188;52.324;8.032;2022-10-23T03:00:09;100324.13;;;11.05;100.00
60345;BME280;46188;52.324;8.032;2022-10-23T03:02:40;100319.72;;;11.01;100.00
60345;BME280;46188;52.324;8.032;2022-10-23T03:05:11;100316.16;;;10.95;100.00
60345;BME280;46188;52.324;8.032;2022-10-23T03:07:38;100321.41;;;10.92;100.00
60345;BME280;46188;52.324;8.032;2022-10-23T03:10:05;100317.00;;;10.90;100.00
60345;BME280;46188;52.324;8.032;2022-10-23T03:12:30;100311.75;;;10.92;100.00
60345;BME280;46188;52.324;8.032;2022-10-23T03:14:56;100304.72;;;10.91;100.00
60345;BME280;46188;52.324;8.032;2022-10-23T03:17:21;100309.06;;;10.83;100.00
60345;BME280;46188;52.324;8.032;2022-10-23T03:19:47;100296.75;;;10.83;100.00
60345;BME280;46188;52.324;8.032;2022-10-23T03:22:12;100301.19;;;10.86;100.00
60345;BME280;46188;52.324;8.032;2022-10-23T03:24:38;100306.44;;;10.84;100.00
60345;BME280;46188;52.324;8.032;2022-10-23T03:27:03;100311.66;;;10.80;100.00
60345;BME280;46188;52.324;8.032;2022-10-23T03:29:28;100306.22;;;10.58;100.00
60345;BME280;46188;52.324;8.032;2022-10-23T03:31:54;100311.50;;;10.58;100.00
60345;BME280;46188;52.324;8.032;2022-10-23T03:34:20;100309.75;;;10.62;100.00
60345;BME280;46188;52.324;8.032;2022-10-23T03:36:45;100316.78;;;10.58;100.00
60345;BME280;46188;52.324;8.032;2022-10-23T03:39:11;100313.22;;;10.53;100.00
60345;BME280;46188;52.324;8.032;2022-10-23T03:41:36;100310.53;;;10.47;100.00
60345;BME280;46188;52.324;8.032;2022-10-23T03:44:01;100306.13;;;10.49;100.00
60345;BME280;46188;52.324;8.032;2022-10-23T03:46:27;100309.78;;;10.63;100.00
60345;BME280;46188;52.324;8.032;2022-10-23T03:48:52;100309.81;;;10.66;100.00
60345;BME280;46188;52.324;8.032;2022-10-23T03:51:19;100306.22;;;10.58;100.00
60345;BME280;46188;52.324;8.032;2022-10-23T03:53:44;100311.44;;;10.50;100.00
60345;BME280;46188;52.324;8.032;2022-10-23T03:56:10;100307.09;;;10.57;100.00
60345;BME280;46188;52.324;8.032;2022-10-23T03:58:35;100302.69;;;10.53;100.00
60345;BME280;46188;52.324;8.032;2022-10-23T04:01:01;100308.78;;;10.49;100.00
60345;BME280;46188;52.324;8.032;2022-10-23T04:03:26;100294.81;;;10.58;100.00
60345;BME280;46188;52.324;8.032;2022-10-23T04:05:51;100293.88;;;10.51;100.00
60345;BME280;46188;52.324;8.032;2022-10-23T04:08:17;100285.16;;;10.60;100.00
60345;BME280;46188;52.324;8.032;2022-10-23T04:10:42;100289.53;;;10.61;100.00
60345;BME280;46188;52.324;8.032;2022-10-23T04:13:07;100290.41;;;10.57;100.00
60345;BME280;46188;52.324;8.032;2022-10-23T04:15:33;100290.44;;;10.60;100.00
60345;BME280;46188;52.324;8.032;2022-10-23T04:17:58;100284.28;;;10.59;100.00
60345;BME280;46188;52.324;8.032;2022-10-23T04:20:24;100285.13;;;10.55;100.00
60345;BME280;46188;52.324;8.032;2022-10-23T04:22:49;100281.59;;;10.55;100.00
60345;BME280;46188;52.324;8.032;2022-10-23T04:25:14;100294.69;;;10.44;100.00
60345;BME280;46188;52.324;8.032;2022-10-23T04:27:41;100296.28;;;10.28;100.00
60345;BME280;46188;52.324;8.032;2022-10-23T04:30:08;100291.81;;;10.22;100.00
60345;BME280;46188;52.324;8.032;2022-10-23T04:32:34;100282.16;;;10.21;100.00
60345;BME280;46188;52.324;8.032;2022-10-23T04:34:59;100282.16;;;10.20;100.00
60345;BME280;46188;52.324;8.032;2022-10-23T04:37:25;100276.06;;;10.28;100.00
60345;BME280;46188;52.324;8.032;2022-10-23T04:39:50;100281.44;;;10.38;100.00
60345;BME280;46188;52.324;8.032;2022-10-23T04:42:15;100280.56;;;10.37;100.00
60345;BME280;46188;52.324;8.032;2022-10-23T04:44:41;100284.09;;;10.36;100.00
60345;BME280;46188;52.324;8.032;2022-10-23T04:47:06;100270.91;;;10.38;100.00
60345;BME280;46188;52.324;8.032;2022-10-23T04:49:32;100268.28;;;10.39;100.00
60345;BME280;46188;52.324;8.032;2022-10-23T04:51:57;100267.44;;;10.43;100.00
60345;BME280;46188;52.324;8.032;2022-10-23T04:54:23;100269.22;;;10.43;100.00
60345;BME280;46188;52.324;8.032;2022-10-23T04:56:48;100262.16;;;10.42;100.00
60345;BME280;46188;52.324;8.032;2022-10-23T04:59:14;100263.94;;;10.43;100.00
60345;BME280;46188;52.324;8.032;2022-10-23T05:01:39;100263.88;;;10.37;100.00
60345;BME280;46188;52.324;8.032;2022-10-23T05:04:04;100256.78;;;10.29;100.00
60345;BME280;46188;52.324;8.032;2022-10-23T05:06:30;100265.53;;;10.28;100.00
60345;BME280;46188;52.324;8.032;2022-10-23T05:08:55;100273.34;;;10.21;100.00
60345;BME280;46188;52.324;8.032;2022-10-23T05:11:20;100260.09;;;10.08;100.00
60345;BME280;46188;52.324;8.032;2022-10-23T05:13:46;100257.38;;;10.01;100.00
60345;BME280;46188;52.324;8.032;2022-10-23T05:16:23;100259.19;;;10.05;100.00
60345;BME280;46188;52.324;8.032;2022-10-23T05:18:51;100251.34;;;10.12;100.00
60345;BME280;46188;52.324;8.032;2022-10-23T05:21:21;100247.91;;;10.21;100.00
60345;BME280;46188;52.324;8.032;2022-10-23T05:23:50;100247.00;;;10.21;100.00
60345;BME280;46188;52.324;8.032;2022-10-23T05:26:16;100238.34;;;10.29;100.00
60345;BME280;46188;52.324;8.032;2022-10-23T05:28:41;100239.19;;;10.28;100.00
60345;BME280;46188;52.324;8.032;2022-10-23T05:31:07;100229.47;;;10.21;100.00
60345;BME280;46188;52.324;8.032;2022-10-23T05:33:34;100224.19;;;10.20;100.00
60345;BME280;46188;52.324;8.032;2022-10-23T05:36:00;100224.19;;;10.18;100.00
60345;BME280;46188;52.324;8.032;2022-10-23T05:38:27;100225.91;;;10.16;100.00
60345;BME280;46188;52.324;8.032;2022-10-23T05:40:53;100229.44;;;10.18;100.00
60345;BME280;46188;52.324;8.032;2022-10-23T05:43:19;100230.25;;;10.11;100.00
60345;BME280;46188;52.324;8.032;2022-10-23T05:45:44;100225.78;;;10.02;100.00
60345;BME280;46188;52.324;8.032;2022-10-23T05:48:13;100230.19;;;10.02;100.00
60345;BME280;46188;52.324;8.032;2022-10-23T05:50:39;100218.81;;;10.07;100.00
60345;BME280;46188;52.324;8.032;2022-10-23T05:53:04;100216.19;;;10.10;100.00
60345;BME280;46188;52.324;8.032;2022-10-23T05:55:30;100214.47;;;10.14;100.00
60345;BME280;46188;52.324;8.032;2022-10-23T05:57:55;100216.22;;;10.13;100.00
60345;BME280;46188;52.324;8.032;2022-10-23T06:00:20;100210.06;;;10.11;100.00
60345;BME280;46188;52.324;8.032;2022-10-23T06:02:46;100217.06;;;10.09;100.00
60345;BME280;46188;52.324;8.032;2022-10-23T06:05:11;100221.41;;;10.06;100.00
60345;BME280;46188;52.324;8.032;2022-10-23T06:07:36;100216.25;;;10.15;100.00
60345;BME280;46188;52.324;8.032;2022-10-23T06:10:04;100215.47;;;10.27;100.00
60345;BME280;46188;52.324;8.032;2022-10-23T06:12:30;100211.94;;;10.25;100.00
60345;BME280;46188;52.324;8.032;2022-10-23T06:14:56;100208.47;;;10.30;100.00
60345;BME280;46188;52.324;8.032;2022-10-23T06:17:21;100210.31;;;10.36;100.00
60345;BME280;46188;52.324;8.032;2022-10-23T06:19:47;100208.59;;;10.43;100.00
60345;BME280;46188;52.324;8.032;2022-10-23T06:22:12;100203.31;;;10.40;100.00
60345;BME280;46188;52.324;8.032;2022-10-23T06:24:37;100201.56;;;10.42;100.00
60345;BME280;46188;52.324;8.032;2022-10-23T06:27:03;100194.56;;;10.48;100.00
60345;BME280;46188;52.324;8.032;2022-10-23T06:29:29;100188.44;;;10.48;100.00
60345;BME280;46188;52.324;8.032;2022-10-23T06:31:54;100193.72;;;10.51;100.00
60345;BME280;46188;52.324;8.032;2022-10-23T06:34:20;100186.72;;;10.53;100.00
60345;BME280;46188;52.324;8.032;2022-10-23T06:36:45;100200.81;;;10.60;100.00
60345;BME280;46188;52.324;8.032;2022-10-23T06:39:11;100198.19;;;10.63;100.00
60345;BME280;46188;52.324;8.032;2022-10-23T06:41:36;100205.22;;;10.64;100.00
60345;BME280;46188;52.324;8.032;2022-10-23T06:44:04;100195.56;;;10.63;100.00
60345;BME280;46188;52.324;8.032;2022-10-23T06:46:29;100196.47;;;10.68;100.00
60345;BME280;46188;52.324;8.032;2022-10-23T06:48:57;100189.44;;;10.70;100.00
60345;BME280;46188;52.324;8.032;2022-10-23T06:51:22;100193.88;;;10.73;100.00
60345;BME280;46188;52.324;8.032;2022-10-23T06:53:49;100193.84;;;10.76;100.00
60345;BME280;46188;52.324;8.032;2022-10-23T06:56:14;100192.16;;;10.81;100.00
60345;BME280;46188;52.324;8.032;2022-10-23T06:58:40;100195.69;;;10.83;100.00
60345;BME280;46188;52.324;8.032;2022-10-23T07:01:08;100191.31;;;10.88;100.00
60345;BME280;46188;52.324;8.032;2022-10-23T07:03:34;100192.22;;;10.96;100.00
60345;BME280;46188;52.324;8.032;2022-10-23T07:06:01;100197.50;;;10.96;100.00
60345;BME280;46188;52.324;8.032;2022-10-23T07:08:27;100201.03;;;11.01;100.00
60345;BME280;46188;52.324;8.032;2022-10-23T07:10:53;100199.28;;;11.05;100.00
60345;BME280;46188;52.324;8.032;2022-10-23T07:13:18;100206.38;;;11.09;100.00
60345;BME280;46188;52.324;8.032;2022-10-23T07:15:44;100201.97;;;11.11;100.00
60345;BME280;46188;52.324;8.032;2022-10-23T07:18:09;100204.63;;;11.16;100.00
60345;BME280;46188;52.324;8.032;2022-10-23T07:20:39;100205.53;;;11.22;100.00
60345;BME280;46188;52.324;8.032;2022-10-23T07:23:05;100195.00;;;11.32;100.00
60345;BME280;46188;52.324;8.032;2022-10-23T07:25:30;100190.59;;;11.37;100.00
60345;BME280;46188;52.324;8.032;2022-10-23T07:27:56;100196.78;;;11.43;100.00
60345;BME280;46188;52.324;8.032;2022-10-23T07:30:22;100198.59;;;11.51;100.00
60345;BME280;46188;52.324;8.032;2022-10-23T07:32:48;100208.25;;;11.53;100.00
60345;BME280;46188;52.324;8.032;2022-10-23T07:35:16;100199.47;;;11.54;100.00
60345;BME280;46188;52.324;8.032;2022-10-23T07:37:42;100194.22;;;11.62;100.00
60345;BME280;46188;52.324;8.032;2022-10-23T07:40:08;100187.19;;;11.67;100.00
60345;BME280;46188;52.324;8.032;2022-10-23T07:42:34;100197.75;;;11.73;100.00
60345;BME280;46188;52.324;8.032;2022-10-23T07:45:00;100196.88;;;11.76;100.00
60345;BME280;46188;52.324;8.032;2022-10-23T07:47:25;100192.47;;;11.76;100.00
60345;BME280;46188;52.324;8.032;2022-10-23T07:49:50;100183.69;;;11.80;100.00
60345;BME280;46188;52.324;8.032;2022-10-23T07:52:16;100169.59;;;11.83;100.00
60345;BME280;46188;52.324;8.032;2022-10-23T07:54:41;100164.31;;;11.88;100.00
60345;BME280;46188;52.324;8.032;2022-10-23T07:57:08;100161.72;;;11.97;100.00
60345;BME280;46188;52.324;8.032;2022-10-23T07:59:33;100152.91;;;12.01;100.00
60345;BME280;46188;52.324;8.032;2022-10-23T08:01:59;100158.19;;;12.09;100.00
60345;BME280;46188;52.324;8.032;2022-10-23T08:04:24;100159.94;;;12.16;100.00
60345;BME280;46188;52.324;8.032;2022-10-23T08:06:50;100164.38;;;12.23;100.00
60345;BME280;46188;52.324;8.032;2022-10-23T08:09:16;100161.69;;;12.32;100.00
60345;BME280;46188;52.324;8.032;2022-10-23T08:11:42;100163.44;;;12.41;100.00
60345;BME280;46188;52.324;8.032;2022-10-23T08:14:08;100161.69;;;12.48;100.00
60345;BME280;46188;52.324;8.032;2022-10-23T08:16:36;100159.00;;;12.60;100.00
60345;BME280;46188;52.324;8.032;2022-10-23T08:19:03;100163.38;;;12.72;100.00
60345;BME280;46188;52.324;8.032;2022-10-23T08:21:29;100167.75;;;12.81;100.00
60345;BME280;46188;52.324;8.032;2022-10-23T08:23:56;100170.38;;;12.90;100.00
60345;BME280;46188;52.324;8.032;2022-10-23T08:26:23;100172.16;;;12.91;100.00
60345;BME280;46188;52.324;8.032;2022-10-23T08:28:50;100157.16;;;12.93;100.00
60345;BME280;46188;52.324;8.032;2022-10-23T08:31:18;100145.59;;;13.14;100.00
60345;BME280;46188;52.324;8.032;2022-10-23T08:33:44;100149.03;;;13.32;100.00
60345;BME280;46188;52.324;8.032;2022-10-23T08:36:22;100149.88;;;13.46;100.00
60345;BME280;46188;52.324;8.032;2022-10-23T08:38:48;100148.13;;;13.39;100.00
60345;BME280;46188;52.324;8.032;2022-10-23T08:41:27;100148.19;;;13.26;100.00
60345;BME280;46188;52.324;8.032;2022-10-23T08:47:01;100147.31;;;13.21;100.00
60345;BME280;46188;52.324;8.032;2022-10-23T08:49:39;100149.13;;;13.18;100.00
60345;BME280;46188;52.324;8.032;2022-10-23T08:52:11;100150.84;;;13.20;100.00
60345;BME280;46188;52.324;8.032;2022-10-23T08:55:08;100145.53;;;13.26;100.00
60345;BME280;46188;52.324;8.032;2022-10-23T08:57:44;100156.13;;;13.36;100.00
60345;BME280;46188;52.324;8.032;2022-10-23T09:00:13;100143.66;;;13.47;100.00
60345;BME280;46188;52.324;8.032;2022-10-23T09:02:47;100147.16;;;13.55;100.00
60345;BME280;46188;52.324;8.032;2022-10-23T09:19:19;100127.31;;;14.13;100.00
60345;BME280;46188;52.324;8.032;2022-10-23T09:21:47;100118.44;;;14.14;100.00
60345;BME280;46188;52.324;8.032;2022-10-23T09:24:18;100122.81;;;14.20;100.00
60345;BME280;46188;52.324;8.032;2022-10-23T09:26:48;100115.63;;;14.31;100.00
60345;BME280;46188;52.324;8.032;2022-10-23T09:29:26;100110.25;;;14.37;100.00
60345;BME280;46188;52.324;8.032;2022-10-23T09:31:57;100106.72;;;14.38;100.00
60345;BME280;46188;52.324;8.032;2022-10-23T09:34:28;100106.75;;;14.34;100.00
60345;BME280;46188;52.324;8.032;2022-10-23T09:37:01;100093.56;;;14.28;100.00
60345;BME280;46188;52.324;8.032;2022-10-23T09:39:33;100092.66;;;14.30;100.00
60345;BME280;46188;52.324;8.032;2022-10-23T09:41:59;100090.91;;;14.26;100.00
60345;BME280;46188;52.324;8.032;2022-10-23T09:44:31;100094.41;;;14.31;100.00
60345;BME280;46188;52.324;8.032;2022-10-23T09:49:32;100083.75;;;14.37;100.00
60345;BME280;46188;52.324;8.032;2022-10-23T09:52:03;100090.00;;;14.33;100.00
60345;BME280;46188;52.324;8.032;2022-10-23T09:54:31;100083.84;;;14.28;100.00
60345;BME280;46188;52.324;8.032;2022-10-23T09:57:21;100089.16;;;14.28;100.00
60345;BME280;46188;52.324;8.032;2022-10-23T09:59:52;100086.38;;;14.39;100.00
60345;BME280;46188;52.324;8.032;2022-10-23T10:02:33;100084.63;;;14.36;100.00
60345;BME280;46188;52.324;8.032;2022-10-23T10:05:31;100082.75;;;14.46;100.00
60345;BME280;46188;52.324;8.032;2022-10-23T10:08:06;100084.44;;;14.56;100.00
60345;BME280;46188;52.324;8.032;2022-10-23T10:10:42;100078.91;;;14.78;100.00
60345;BME280;46188;52.324;8.032;2022-10-23T10:18:39;100058.34;;;14.92;100.00
60345;BME280;46188;52.324;8.032;2022-10-23T10:24:17;100064.25;;;15.15;100.00
60345;BME280;46188;52.324;8.032;2022-10-23T10:30:00;100061.56;;;15.16;100.00
60345;BME280;46188;52.324;8.032;2022-10-23T10:49:42;100054.09;;;15.41;100.00
60345;BME280;46188;52.324;8.032;2022-10-23T10:59:54;100025.34;;;15.68;100.00
60345;BME280;46188;52.324;8.032;2022-10-23T11:02:33;100017.00;;;15.90;100.00
60345;BME280;46188;52.324;8.032;2022-10-23T11:05:42;100009.19;;;16.29;100.00
60345;BME280;46188;52.324;8.032;2022-10-23T11:08:19;100002.50;;;16.51;100.00
60345;BME280;46188;52.324;8.032;2022-10-23T11:10:55;99989.69;;;16.70;100.00
60345;BME280;46188;52.324;8.032;2022-10-23T11:13:28;99992.28;;;16.75;100.00
60345;BME280;46188;52.324;8.032;2022-10-23T11:16:02;99988.97;;;16.64;100.00
60345;BME280;46188;52.324;8.032;2022-10-23T11:18:29;99978.16;;;16.29;100.00
60345;BME280;46188;52.324;8.032;2022-10-23T11:21:21;99968.88;;;16.05;100.00
60345;BME280;46188;52.324;8.032;2022-10-23T11:35:04;99947.41;;;15.67;100.00
60345;BME280;46188;52.324;8.032;2022-10-23T11:37:33;99948.22;;;15.71;100.00
60345;BME280;46188;52.324;8.032;2022-10-23T11:44:58;99939.88;;;15.93;100.00
60345;BME280;46188;52.324;8.032;2022-10-23T11:47:35;99938.03;;;15.96;100.00
60345;BME280;46188;52.324;8.032;2022-10-23T11:52:40;99929.13;;;15.99;100.00
60345;BME280;46188;52.324;8.032;2022-10-23T11:55:20;99922.38;;;15.82;100.00
60345;BME280;46188;52.324;8.032;2022-10-23T11:58:21;99912.59;;;15.83;100.00
60345;BME280;46188;52.324;8.032;2022-10-23T12:00:54;99900.19;;;15.83;100.00
60345;BME280;46188;52.324;8.032;2022-10-23T12:03:29;99892.03;;;15.93;100.00
60345;BME280;46188;52.324;8.032;2022-10-23T12:06:02;99885.00;;;15.89;100.00
60345;BME280;46188;52.324;8.032;2022-10-23T12:08:30;99877.16;;;15.84;100.00
60345;BME280;46188;52.324;8.032;2022-10-23T12:10:57;99874.47;;;15.85;100.00
60345;BME280;46188;52.324;8.032;2022-10-23T12:16:04;99858.41;;;15.90;100.00
60345;BME280;46188;52.324;8.032;2022-10-23T12:18:32;99857.31;;;16.00;100.00
60345;BME280;46188;52.324;8.032;2022-10-23T12:20:59;99857.97;;;16.10;100.00
60345;BME280;46188;52.324;8.032;2022-10-23T12:29:27;99851.69;;;16.14;100.00
60345;BME280;46188;52.324;8.032;2022-10-23T12:37:47;99838.59;;;16.05;100.00
60345;BME280;46188;52.324;8.032;2022-10-23T12:40:06;99819.16;;;16.03;100.00
60345;BME280;46188;52.324;8.032;2022-10-23T12:42:32;99820.00;;;16.03;100.00
60345;BME280;46188;52.324;8.032;2022-10-23T12:47:38;99803.88;;;16.13;100.00
60345;BME280;46188;52.324;8.032;2022-10-23T12:52:59;99787.84;;;16.16;100.00
60345;BME280;46188;52.324;8.032;2022-10-23T12:55:30;99780.75;;;16.15;100.00
60345;BME280;46188;52.324;8.032;2022-10-23T12:57:57;99791.47;;;16.12;100.00
60345;BME280;46188;52.324;8.032;2022-10-23T13:00:23;99800.41;;;16.09;100.00
60345;BME280;46188;52.324;8.032;2022-10-23T13:03:03;99796.13;;;16.02;100.00
60345;BME280;46188;52.324;8.032;2022-10-23T13:05:29;99799.66;;;16.02;100.00
60345;BME280;46188;52.324;8.032;2022-10-23T13:07:57;99792.50;;;16.06;100.00
60345;BME280;46188;52.324;8.032;2022-10-23T13:10:24;99796.00;;;16.08;100.00
60345;BME280;46188;52.324;8.032;2022-10-23T13:12:55;99794.97;;;16.15;100.00
60345;BME280;46188;52.324;8.032;2022-10-23T13:15:22;99785.13;;;16.19;100.00
60345;BME280;46188;52.324;8.032;2022-10-23T13:22:51;99777.59;;;16.74;100.00
60345;BME280;46188;52.324;8.032;2022-10-23T13:25:23;99774.91;;;16.74;100.00
60345;BME280;46188;52.324;8.032;2022-10-23T13:27:50;99774.09;;;16.72;100.00
60345;BME280;46188;52.324;8.032;2022-10-23T13:30:32;99770.69;;;16.67;100.00
60345;BME280;46188;52.324;8.032;2022-10-23T13:32:58;99756.72;;;16.57;100.00
60345;BME280;46188;52.324;8.032;2022-10-23T13:35:24;99755.97;;;16.52;100.00
60345;BME280;46188;52.324;8.032;2022-10-23T13:37:49;99751.66;;;16.46;100.00
60345;BME280;46188;52.324;8.032;2022-10-23T13:40:22;99743.09;;;16.33;100.00
60345;BME280;46188;52.324;8.032;2022-10-23T13:42:48;99719.28;;;16.29;100.00
60345;BME280;46188;52.324;8.032;2022-10-23T13:45:19;99698.78;;;16.34;100.00
60345;BME280;46188;52.324;8.032;2022-10-23T13:47:45;99686.88;;;16.49;100.00
60345;BME280;46188;52.324;8.032;2022-10-23T13:50:10;99679.63;;;16.54;100.00
60345;BME280;46188;52.324;8.032;2022-10-23T13:52:36;99679.34;;;16.65;100.00
60345;BME280;46188;52.324;8.032;2022-10-23T13:55:08;99679.22;;;16.69;100.00
60345;BME280;46188;52.324;8.032;2022-10-23T13:57:37;99684.66;;;16.65;100.00
60345;BME280;46188;52.324;8.032;2022-10-23T14:00:03;99685.56;;;16.65;100.00
60345;BME280;46188;52.324;8.032;2022-10-23T14:02:29;99683.00;;;16.60;100.00
60345;BME280;46188;52.324;8.032;2022-10-23T14:04:54;99687.28;;;16.66;100.00
60345;BME280;46188;52.324;8.032;2022-10-23T14:07:19;99683.41;;;16.78;100.00
60345;BME280;46188;52.324;8.032;2022-10-23T14:09:45;99680.59;;;16.84;100.00
60345;BME280;46188;52.324;8.032;2022-10-23T14:12:10;99676.00;;;16.91;100.00
60345;BME280;46188;52.324;8.032;2022-10-23T14:14:36;99673.31;;;16.92;100.00
60345;BME280;46188;52.324;8.032;2022-10-23T14:17:02;99672.31;;;16.96;100.00
60345;BME280;46188;52.324;8.032;2022-10-23T14:19:27;99664.50;;;16.90;100.00
60345;BME280;46188;52.324;8.032;2022-10-23T14:21:53;99663.44;;;16.96;100.00
60345;BME280;46188;52.324;8.032;2022-10-23T14:24:18;99658.16;;;16.94;100.00
60345;BME280;46188;52.324;8.032;2022-10-23T14:26:43;99660.06;;;16.89;100.00
60345;BME280;46188;52.324;8.032;2022-10-23T14:29:09;99668.25;;;16.82;100.00
60345;BME280;46188;52.324;8.032;2022-10-23T14:31:34;99676.38;;;16.77;100.00
60345;BME280;46188;52.324;8.032;2022-10-23T14:34:00;99659.53;;;16.76;100.00
60345;BME280;46188;52.324;8.032;2022-10-23T14:36:27;99657.00;;;16.72;100.00
60345;BME280;46188;52.324;8.032;2022-10-23T14:38:56;99655.44;;;16.63;100.00
60345;BME280;46188;52.324;8.032;2022-10-23T14:41:23;99644.03;;;16.58;100.00
60345;BME280;46188;52.324;8.032;2022-10-23T14:43:50;99635.91;;;16.64;100.00
60345;BME280;46188;52.324;8.032;2022-10-23T14:46:18;99630.78;;;16.56;100.00
60345;BME280;46188;52.324;8.032;2022-10-23T14:48:44;99643.34;;;16.51;100.00
60345;BME280;46188;52.324;8.032;2022-10-23T14:51:21;99633.78;;;16.44;100.00
60345;BME280;46188;52.324;8.032;2022-10-23T14:53:47;99619.72;;;16.39;100.00
60345;BME280;46188;52.324;8.032;2022-10-23T14:56:14;99617.94;;;16.39;100.00
60345;BME280;46188;52.324;8.032;2022-10-23T14:58:40;99617.97;;;16.38;100.00
60345;BME280;46188;52.324;8.032;2022-10-23T15:01:06;99625.16;;;16.34;100.00
60345;BME280;46188;52.324;8.032;2022-10-23T15:03:32;99618.94;;;16.35;100.00
60345;BME280;46188;52.324;8.032;2022-10-23T15:05:57;99617.34;;;16.28;100.00